Archival Weather

Chicago O'Hare International

Chicago, Illinois (KORD)

Report from: Thursday, May 11, 2023 12:51 AM CDT
Current time: Sunday, February 25, 2024 4:25 PM CST

Current weather – Weather history – Daily summaries
Weather forecast

Temperature14.4°C (57.9°F)
Dew point5.6°C (42.1°F)
Winds Calm
Visibility10 mi. (16.1 km)
Clouds Scattered clouds 35,000 ft. (10,668 m)
Altimeter30.10 in.Hg (1019 mB)
Relative humidity55 %
Density altitude-132 ft. (-40 m)
Sea-level pressure101.9 kPa (1019 mB, 30.09 in.Hg)
Max temp last 6 hours22.8°C (73.0°F)
Min temp last 6 hours14.4°C (57.9°F)
Max temp last 24 hours27.2°C (81.0°F)
Min temp last 24 hours9.4°C (48.9°F)
Remarks Automated weather observing station with precipitation discriminator
Pressure falling more quickly
Flight conditions Visual Meteorological Conditions
Raw dataKORD 110551Z 00000KT 10SM SCT350 14/06 A3010 RMK AO2 SLP190 T01440056 10228 20144 402720094 58005
An error has occurred. This application may no longer respond until reloaded. Reload 🗙